createdAt,value
2019-05-10T00:01:10.878Z,11.33
2019-05-10T00:03:55.364Z,11.73
2019-05-10T00:06:40.013Z,10.23
2019-05-10T00:09:06.127Z,10.53
2019-05-10T00:11:49.089Z,11.67
2019-05-10T00:14:31.242Z,10.83
2019-05-10T00:16:59.302Z,10.30
2019-05-10T00:19:25.462Z,11.17
2019-05-10T00:21:51.691Z,9.53
2019-05-10T00:24:17.973Z,10.00
2019-05-10T00:26:44.118Z,8.80
2019-05-10T00:29:10.307Z,9.07
2019-05-10T00:31:36.590Z,8.67
2019-05-10T00:34:02.810Z,9.87
2019-05-10T00:36:29.022Z,8.13
2019-05-10T00:38:55.196Z,9.77
2019-05-10T00:41:21.453Z,10.23
2019-05-10T00:43:47.680Z,10.50
2019-05-10T00:46:13.837Z,11.37
2019-05-10T00:48:39.991Z,11.03
2019-05-10T00:51:06.213Z,10.27
2019-05-10T00:53:32.402Z,9.63
2019-05-10T00:55:58.660Z,10.00
2019-05-10T00:58:24.882Z,9.17
2019-05-10T01:00:51.218Z,7.73
2019-05-10T01:03:17.417Z,8.97
2019-05-10T01:05:43.745Z,9.37
2019-05-10T01:08:09.920Z,9.23
2019-05-10T01:10:36.179Z,8.13
2019-05-10T01:13:02.483Z,8.93
2019-05-10T01:15:28.624Z,8.43
2019-05-10T01:17:54.776Z,9.20
2019-05-10T01:20:20.990Z,8.37
2019-05-10T01:22:47.199Z,8.37
2019-05-10T01:25:13.356Z,8.03
2019-05-10T01:27:39.556Z,9.00
2019-05-10T01:30:06.438Z,8.57
2019-05-10T01:32:32.795Z,9.00
2019-05-10T01:35:01.253Z,9.50
2019-05-10T01:37:29.202Z,7.57
2019-05-10T01:39:55.370Z,8.73
2019-05-10T01:42:21.581Z,8.13
2019-05-10T01:44:47.896Z,7.90
2019-05-10T01:47:14.073Z,7.53
2019-05-10T01:49:40.268Z,8.53
2019-05-10T01:52:06.560Z,8.27
2019-05-10T01:54:33.252Z,7.50
2019-05-10T01:56:59.540Z,7.83
2019-05-10T01:59:25.719Z,6.97
2019-05-10T02:01:51.889Z,8.03
2019-05-10T02:04:18.224Z,8.13
2019-05-10T02:06:46.284Z,7.47
2019-05-10T02:09:12.446Z,7.03
2019-05-10T02:11:38.757Z,8.27
2019-05-10T02:14:04.905Z,8.63
2019-05-10T02:16:57.683Z,8.50
2019-05-10T02:19:24.431Z,8.80
2019-05-10T02:21:50.624Z,8.77
2019-05-10T02:24:18.352Z,8.57
2019-05-10T02:26:44.612Z,9.53
2019-05-10T02:29:10.920Z,9.50
2019-05-10T02:31:37.135Z,8.97
2019-05-10T02:34:03.431Z,8.27
2019-05-10T02:36:29.659Z,9.23
2019-05-10T02:38:55.855Z,8.30
2019-05-10T02:41:22.015Z,8.53
2019-05-10T02:43:48.202Z,7.80
2019-05-10T02:46:14.419Z,8.20
2019-05-10T02:48:40.577Z,8.13
2019-05-10T02:51:06.890Z,7.57
2019-05-10T02:53:33.299Z,7.90
2019-05-10T02:55:59.460Z,6.70
2019-05-10T02:58:25.746Z,6.50
2019-05-10T03:00:54.265Z,6.40
2019-05-10T03:03:23.139Z,5.83
2019-05-10T03:05:52.132Z,6.07
2019-05-10T03:08:18.356Z,6.40
2019-05-10T03:10:48.159Z,6.53
2019-05-10T03:13:16.149Z,5.80
2019-05-10T03:15:45.968Z,6.17
2019-05-10T03:18:12.729Z,6.73
2019-05-10T03:20:39.925Z,5.70
2019-05-10T03:23:08.219Z,5.80
2019-05-10T03:25:34.492Z,5.77
2019-05-10T03:28:00.751Z,6.13
2019-05-10T03:30:27.025Z,5.97
2019-05-10T03:32:53.221Z,6.10
2019-05-10T03:35:19.442Z,5.83
2019-05-10T03:37:47.060Z,5.70
2019-05-10T03:40:13.816Z,5.43
2019-05-10T03:42:40.015Z,5.60
2019-05-10T03:45:06.828Z,5.50
2019-05-10T03:47:32.982Z,5.77
2019-05-10T03:49:59.170Z,5.83
2019-05-10T03:52:25.380Z,5.60
2019-05-10T03:54:51.549Z,6.47
2019-05-10T03:57:17.889Z,5.10
2019-05-10T03:59:44.206Z,5.47
2019-05-10T04:02:10.371Z,4.43
2019-05-10T04:04:36.520Z,5.07
2019-05-10T04:07:02.740Z,5.50
2019-05-10T04:09:28.893Z,5.57
2019-05-10T04:11:55.070Z,5.63
2019-05-10T04:14:21.315Z,5.32
2019-05-10T04:16:47.481Z,5.67
2019-05-10T04:19:13.634Z,5.60
2019-05-10T04:21:39.838Z,5.10
2019-05-10T04:24:06.026Z,5.00
2019-05-10T04:26:32.293Z,5.40
2019-05-10T04:28:58.510Z,5.33
2019-05-10T04:31:24.672Z,5.57
2019-05-10T04:33:50.828Z,5.23
2019-05-10T04:36:17.039Z,4.60
2019-05-10T04:38:43.243Z,5.03
2019-05-10T04:41:09.431Z,5.03
2019-05-10T04:43:35.635Z,4.67
2019-05-10T04:46:01.797Z,5.50
2019-05-10T04:48:27.970Z,5.03
2019-05-10T04:50:54.253Z,4.63
2019-05-10T04:53:20.413Z,4.90
2019-05-10T04:55:46.591Z,4.57
2019-05-10T04:58:12.798Z,4.47
2019-05-10T05:00:38.945Z,5.33
2019-05-10T05:03:05.104Z,4.73
2019-05-10T05:05:31.322Z,4.70
2019-05-10T05:07:57.477Z,4.90
2019-05-10T05:10:23.670Z,5.27
2019-05-10T05:12:49.879Z,4.87
2019-05-10T05:15:19.871Z,4.33
2019-05-10T05:17:46.101Z,4.40
2019-05-10T05:20:12.309Z,5.00
2019-05-10T05:22:38.475Z,4.33
2019-05-10T05:25:06.582Z,4.63
2019-05-10T05:27:32.804Z,5.53
2019-05-10T05:29:58.954Z,6.07
2019-05-10T05:32:25.119Z,5.53
2019-05-10T05:34:51.337Z,5.13
2019-05-10T05:37:17.522Z,4.43
2019-05-10T05:39:43.751Z,5.10
2019-05-10T05:42:09.940Z,6.33
2019-05-10T05:44:36.115Z,6.03
2019-05-10T05:47:04.706Z,5.80
2019-05-10T05:49:30.489Z,6.20
2019-05-10T05:51:56.663Z,6.53
2019-05-10T05:54:22.908Z,6.60
2019-05-10T05:56:50.826Z,6.47
2019-05-10T05:59:23.483Z,6.50
2019-05-10T06:01:45.306Z,7.00
2019-05-10T06:04:12.794Z,7.43
2019-05-10T06:06:39.169Z,6.70
2019-05-10T06:09:06.337Z,6.60
2019-05-10T06:11:35.947Z,7.03
2019-05-10T06:14:03.733Z,7.20
2019-05-10T06:16:29.062Z,6.93
2019-05-10T06:18:55.266Z,7.97
2019-05-10T06:21:24.856Z,8.07
2019-05-10T06:23:49.505Z,9.53
2019-05-10T06:26:26.519Z,8.10
2019-05-10T06:28:58.269Z,7.93
2019-05-10T06:31:12.350Z,8.80
2019-05-10T06:33:39.560Z,8.57
2019-05-10T06:36:06.634Z,6.07
2019-05-10T06:38:32.798Z,8.00
2019-05-10T06:40:58.998Z,7.00
2019-05-10T06:43:27.079Z,6.73
2019-05-10T06:45:53.968Z,5.00
2019-05-10T06:48:27.718Z,4.90
2019-05-10T06:50:48.359Z,4.93
2019-05-10T06:53:14.504Z,4.40
2019-05-10T06:55:40.705Z,3.83
2019-05-10T06:58:06.883Z,4.40
2019-05-10T07:00:38.081Z,4.40
2019-05-10T07:03:01.251Z,3.03
2019-05-10T07:05:27.536Z,3.97
2019-05-10T07:07:53.689Z,4.10
2019-05-10T07:10:25.297Z,3.50
2019-05-10T07:12:48.017Z,4.07
2019-05-10T07:15:14.547Z,3.83
2019-05-10T07:17:45.621Z,4.00
2019-05-10T07:20:09.041Z,3.90
2019-05-10T07:22:35.304Z,4.13
2019-05-10T07:25:04.473Z,3.47
2019-05-10T07:27:29.682Z,4.07
2019-05-10T07:29:55.843Z,4.13
2019-05-10T07:32:24.429Z,4.33
2019-05-10T07:34:58.950Z,3.93
2019-05-10T07:37:18.312Z,3.30
2019-05-10T07:39:44.509Z,3.90
2019-05-10T07:42:10.871Z,3.83
2019-05-10T07:44:41.400Z,3.23
2019-05-10T07:47:05.139Z,3.33
2019-05-10T07:49:32.540Z,2.87
2019-05-10T07:52:02.237Z,2.50
2019-05-10T07:54:27.090Z,2.50
2019-05-10T07:56:53.271Z,2.87
2019-05-10T07:59:21.981Z,2.60
2019-05-10T08:01:49.143Z,2.40
2019-05-10T08:04:19.708Z,2.33
2019-05-10T08:06:47.629Z,2.07
2019-05-10T08:09:11.788Z,2.07
2019-05-10T08:11:39.084Z,1.90
2019-05-10T08:14:06.497Z,2.13
2019-05-10T08:16:33.544Z,2.50
2019-05-10T08:19:00.948Z,2.70
2019-05-10T08:21:27.807Z,2.83
2019-05-10T08:23:54.210Z,2.77
2019-05-10T08:26:24.525Z,2.27
2019-05-10T08:28:48.548Z,2.77
2019-05-10T08:31:15.993Z,3.50
2019-05-10T08:33:44.162Z,2.53
2019-05-10T08:36:12.151Z,3.10
2019-05-10T08:38:39.689Z,3.13
2019-05-10T08:41:08.102Z,2.90
2019-05-10T08:43:39.016Z,3.10
2019-05-10T08:46:03.769Z,3.17
2019-05-10T08:48:29.945Z,3.23
2019-05-10T08:50:57.626Z,2.30
2019-05-10T08:53:24.305Z,2.43
2019-05-10T08:55:52.444Z,2.27
2019-05-10T09:01:16.361Z,1.83
2019-05-10T09:03:32.373Z,2.13
2019-05-10T09:06:05.244Z,1.80
2019-05-10T09:08:29.621Z,2.40
2019-05-10T09:10:54.840Z,2.40
2019-05-10T09:13:22.921Z,1.57
2019-05-10T09:15:54.313Z,1.90
2019-05-10T09:18:17.347Z,1.30
2019-05-10T09:20:43.504Z,2.33
2019-05-10T09:23:17.946Z,1.90
2019-05-10T09:25:37.789Z,2.00
2019-05-10T09:28:11.665Z,1.90
2019-05-10T09:30:35.841Z,1.50
2019-05-10T09:33:08.562Z,1.80
2019-05-10T09:35:30.155Z,1.70
2019-05-10T09:37:58.604Z,2.00
2019-05-10T09:40:26.326Z,2.33
2019-05-10T09:42:52.482Z,1.80
2019-05-10T09:45:18.866Z,2.13
2019-05-10T09:47:45.038Z,1.87
2019-05-10T09:50:12.627Z,1.60
2019-05-10T09:52:39.095Z,1.80
2019-05-10T09:55:10.196Z,2.20
2019-05-10T09:57:33.516Z,2.13
2019-05-10T10:00:00.203Z,2.20
2019-05-10T10:02:33.607Z,2.35
2019-05-10T10:04:58.650Z,1.97
2019-05-10T10:07:31.762Z,1.90
2019-05-10T10:09:52.462Z,2.13
2019-05-10T10:12:18.619Z,2.00
2019-05-10T10:14:47.127Z,1.67
2019-05-10T10:17:12.900Z,2.40
2019-05-10T10:19:40.742Z,1.73
2019-05-10T10:22:10.956Z,2.00
2019-05-10T10:24:40.291Z,1.90
2019-05-10T10:27:03.404Z,1.77
2019-05-10T10:29:34.038Z,1.97
2019-05-10T10:31:58.966Z,1.67
2019-05-10T10:34:27.246Z,1.30
2019-05-10T10:36:53.766Z,1.30
2019-05-10T10:39:24.349Z,1.03
2019-05-10T10:41:52.157Z,1.43
2019-05-10T10:44:18.565Z,1.50
2019-05-10T10:46:44.749Z,1.50
2019-05-10T10:49:14.205Z,1.20
2019-05-10T10:52:05.655Z,1.60
2019-05-10T10:54:22.447Z,1.30
2019-05-10T10:56:49.309Z,1.13
2019-05-10T10:59:18.173Z,1.67
2019-05-10T11:01:50.059Z,1.57
2019-05-10T11:04:12.224Z,1.60
2019-05-10T11:06:42.196Z,1.49
2019-05-10T11:09:08.910Z,1.70
2019-05-10T11:11:38.810Z,1.30
2019-05-10T11:14:07.107Z,1.70
2019-05-10T11:16:31.516Z,1.70
2019-05-10T11:18:57.676Z,1.90
2019-05-10T11:21:28.761Z,2.23
2019-05-10T11:23:56.192Z,2.10
2019-05-10T11:26:26.913Z,2.47
2019-05-10T11:28:51.519Z,2.43
2019-05-10T11:31:17.716Z,2.47
2019-05-10T11:33:47.225Z,2.57
2019-05-10T11:36:12.257Z,2.13
2019-05-10T11:38:41.974Z,2.93
2019-05-10T11:41:13.603Z,2.40
2019-05-10T11:43:36.761Z,2.20
2019-05-10T11:46:03.054Z,2.50
2019-05-10T11:48:36.856Z,2.23
2019-05-10T11:50:59.149Z,2.10
2019-05-10T11:53:25.326Z,1.93
2019-05-10T11:55:54.623Z,1.80
2019-05-10T11:58:37.664Z,2.10
2019-05-10T12:04:28.797Z,1.50
2019-05-10T12:06:51.494Z,1.57
2019-05-10T12:09:15.603Z,1.70
2019-05-10T12:12:06.447Z,1.67
2019-05-10T12:14:28.600Z,1.90
2019-05-10T12:16:54.948Z,1.43
2019-05-10T12:19:21.596Z,1.60
2019-05-10T12:21:47.958Z,1.93
2019-05-10T12:24:31.181Z,1.77
2019-05-10T12:26:04.911Z,1.73
2019-05-10T12:29:13.761Z,1.50
2019-05-10T12:31:38.413Z,1.10
2019-05-10T12:34:09.107Z,1.30
2019-05-10T12:36:32.781Z,1.20
2019-05-10T12:39:01.533Z,1.27
2019-05-10T12:41:27.089Z,1.67
2019-05-10T12:44:02.563Z,1.77
2019-05-10T12:46:21.355Z,1.50
2019-05-10T12:48:47.605Z,1.53
2019-05-10T12:51:16.404Z,1.50
2019-05-10T12:53:47.752Z,1.63
2019-05-10T12:56:11.876Z,1.70
2019-05-10T12:58:38.042Z,1.80
2019-05-10T13:01:04.314Z,1.50
2019-05-10T13:03:32.088Z,1.43
2019-05-10T13:05:58.564Z,1.50
2019-05-10T13:08:24.778Z,1.27
2019-05-10T13:10:51.045Z,1.27
2019-05-10T13:13:23.755Z,1.13
2019-05-10T13:15:52.850Z,1.20
2019-05-10T13:18:23.141Z,1.13
2019-05-10T13:20:47.132Z,1.10
2019-05-10T13:23:15.909Z,1.50
2019-05-10T13:25:41.428Z,1.40
2019-05-10T13:28:11.735Z,1.87
2019-05-10T13:30:38.356Z,1.60
2019-05-10T13:33:04.591Z,2.17
2019-05-10T13:35:32.666Z,2.20
2019-05-10T13:38:03.947Z,2.27
2019-05-10T13:40:30.912Z,1.80
2019-05-10T13:42:57.164Z,1.90
2019-05-10T13:45:23.333Z,1.70
2019-05-10T13:47:49.558Z,2.00
2019-05-10T13:50:15.824Z,1.90
2019-05-10T13:52:42.010Z,1.87
2019-05-10T13:55:08.240Z,1.93
2019-05-10T13:57:34.484Z,2.07
2019-05-10T14:00:02.423Z,2.50
2019-05-10T14:02:33.159Z,1.77
2019-05-10T14:04:56.828Z,2.70
2019-05-10T14:07:23.026Z,2.40
2019-05-10T14:09:49.226Z,2.50
2019-05-10T14:12:16.052Z,2.80
2019-05-10T14:14:43.435Z,2.33
2019-05-10T14:17:09.702Z,2.50
2019-05-10T14:19:36.485Z,2.07
2019-05-10T14:22:02.784Z,2.50
2019-05-10T14:24:29.011Z,2.37
2019-05-10T14:26:57.312Z,2.47
2019-05-10T14:29:32.942Z,1.93
2019-05-10T14:31:51.395Z,1.93
2019-05-10T14:34:17.592Z,2.30
2019-05-10T14:36:43.750Z,2.03
2019-05-10T14:39:11.327Z,1.80
2019-05-10T14:41:39.781Z,2.20
2019-05-10T14:44:05.556Z,1.90
2019-05-10T14:46:31.776Z,1.93
2019-05-10T14:49:08.827Z,2.20
2019-05-10T14:51:38.989Z,1.60
2019-05-10T14:53:58.159Z,2.40
2019-05-10T14:59:11.024Z,1.83
2019-05-10T15:01:43.094Z,1.93
2019-05-10T15:04:05.412Z,2.07
2019-05-10T15:06:37.056Z,2.00
2019-05-10T15:08:59.679Z,1.90
2019-05-10T15:11:26.442Z,1.90
2019-05-10T15:13:53.949Z,1.80
2019-05-10T15:16:27.076Z,1.70
2019-05-10T15:18:48.208Z,1.50
2019-05-10T15:21:14.434Z,2.20
2019-05-10T15:23:40.600Z,2.37
2019-05-10T15:26:11.588Z,1.80
2019-05-10T15:28:40.349Z,2.37
2019-05-10T15:31:09.405Z,1.70
2019-05-10T15:33:46.404Z,1.70
2019-05-10T15:36:14.442Z,1.77
2019-05-10T15:38:49.856Z,2.23
2019-05-10T15:41:08.683Z,1.70
2019-05-10T15:43:34.853Z,2.30
2019-05-10T15:46:01.031Z,1.83
2019-05-10T15:48:27.243Z,1.97
2019-05-10T15:50:53.406Z,2.10
2019-05-10T15:53:25.281Z,2.10
2019-05-10T15:55:47.843Z,1.87
2019-05-10T15:58:13.971Z,1.70
2019-05-10T16:00:41.648Z,1.70
2019-05-10T16:03:08.065Z,1.67
2019-05-10T16:05:42.998Z,2.00
2019-05-10T16:08:02.275Z,2.40
2019-05-10T16:10:38.855Z,2.00
2019-05-10T16:12:56.707Z,1.60
2019-05-10T16:15:22.873Z,2.20
2019-05-10T16:17:53.761Z,2.50
2019-05-10T16:20:17.135Z,2.40
2019-05-10T16:22:43.292Z,2.90
2019-05-10T16:25:09.596Z,2.60
2019-05-10T16:27:41.686Z,2.27
2019-05-10T16:30:11.636Z,2.30
2019-05-10T16:32:36.281Z,2.40
2019-05-10T16:35:05.903Z,2.30
2019-05-10T16:37:32.028Z,2.67
2019-05-10T16:39:58.212Z,2.30
2019-05-10T16:42:27.906Z,2.40
2019-05-10T16:44:52.451Z,2.37
2019-05-10T16:47:18.707Z,2.20
2019-05-10T16:49:47.596Z,2.40
2019-05-10T16:52:13.061Z,2.33
2019-05-10T16:54:39.337Z,2.43
2019-05-10T16:57:05.524Z,2.40
2019-05-10T16:59:34.879Z,2.20
2019-05-10T17:02:04.340Z,2.60
2019-05-10T17:04:32.203Z,2.93
2019-05-10T17:06:58.528Z,2.70
2019-05-10T17:09:24.083Z,2.87
2019-05-10T17:11:50.364Z,2.30
2019-05-10T17:14:17.908Z,2.77
2019-05-10T17:16:44.538Z,3.13
2019-05-10T17:19:10.807Z,3.00
2019-05-10T17:21:37.007Z,3.00
2019-05-10T17:24:03.375Z,2.67
2019-05-10T17:26:32.719Z,2.67
2019-05-10T17:28:57.718Z,2.87
2019-05-10T17:31:23.909Z,2.63
2019-05-10T17:33:50.077Z,2.70
2019-05-10T17:36:19.776Z,2.53
2019-05-10T17:38:47.222Z,2.70
2019-05-10T17:41:12.721Z,2.53
2019-05-10T17:43:38.880Z,2.67
2019-05-10T17:46:05.095Z,2.57
2019-05-10T17:48:31.251Z,3.10
2019-05-10T17:50:57.534Z,3.70
2019-05-10T17:53:23.747Z,3.23
2019-05-10T17:55:55.718Z,3.27
2019-05-10T17:58:18.051Z,2.77
2019-05-10T18:00:45.063Z,2.33
2019-05-10T18:03:11.217Z,4.50
2019-05-10T18:05:41.269Z,7.43
2019-05-10T18:08:05.571Z,6.90
2019-05-10T18:10:31.797Z,3.70
2019-05-10T18:13:03.369Z,3.27
2019-05-10T18:15:27.818Z,3.07
2019-05-10T18:17:57.590Z,3.10
2019-05-10T18:20:22.323Z,3.03
2019-05-10T18:22:48.612Z,3.00
2019-05-10T18:25:20.223Z,2.63
2019-05-10T18:27:43.143Z,3.00
2019-05-10T18:30:09.546Z,2.93
2019-05-10T18:32:37.101Z,2.67
2019-05-10T18:35:13.031Z,3.00
2019-05-10T18:37:34.019Z,3.07
2019-05-10T18:40:00.185Z,3.13
2019-05-10T18:42:27.928Z,3.30
2019-05-10T18:44:54.446Z,3.30
2019-05-10T18:47:20.621Z,3.40
2019-05-10T18:49:46.789Z,3.57
2019-05-10T18:52:12.984Z,3.40
2019-05-10T18:54:39.159Z,3.17
2019-05-10T18:57:12.036Z,3.70
2019-05-10T18:59:33.511Z,3.53
2019-05-10T19:01:59.803Z,3.10
2019-05-10T19:04:25.999Z,3.60
2019-05-10T19:07:07.653Z,3.70
2019-05-10T19:09:20.385Z,3.57
2019-05-10T19:11:46.540Z,3.80
2019-05-10T19:14:12.921Z,3.37
2019-05-10T19:16:39.111Z,3.17
2019-05-10T19:19:05.280Z,3.00
2019-05-10T19:21:32.579Z,3.60
2019-05-10T19:23:59.052Z,3.30
2019-05-10T19:26:29.575Z,3.07
2019-05-10T19:28:53.295Z,3.17
2019-05-10T19:31:19.475Z,2.73
2019-05-10T19:33:54.388Z,3.08
2019-05-10T19:36:20.601Z,3.20
2019-05-10T19:38:46.764Z,2.90
2019-05-10T19:41:12.921Z,3.13
2019-05-10T19:43:39.123Z,3.00
2019-05-10T19:46:05.301Z,3.30
2019-05-10T19:48:35.290Z,3.10
2019-05-10T19:51:03.025Z,3.07
2019-05-10T19:53:27.639Z,3.30
2019-05-10T19:55:57.108Z,3.00
2019-05-10T19:58:26.379Z,3.80
2019-05-10T20:00:49.991Z,3.50
2019-05-10T20:03:16.878Z,3.87
2019-05-10T20:05:44.356Z,3.30
2019-05-10T20:08:10.631Z,3.57
2019-05-10T20:10:36.909Z,3.87
2019-05-10T20:13:03.118Z,3.90
2019-05-10T20:15:29.298Z,3.70
2019-05-10T20:17:55.505Z,3.10
2019-05-10T20:20:21.858Z,3.53
2019-05-10T20:22:48.033Z,3.67
2019-05-10T20:25:14.186Z,3.17
2019-05-10T20:27:40.376Z,3.10
2019-05-10T20:30:07.454Z,3.53
2019-05-10T20:32:33.615Z,3.23
2019-05-10T20:34:59.819Z,3.10
2019-05-10T20:37:25.992Z,3.03
2019-05-10T20:39:52.140Z,2.87
2019-05-10T20:42:18.554Z,3.20
2019-05-10T20:44:44.737Z,3.70
2019-05-10T20:47:10.901Z,3.60
2019-05-10T20:49:37.095Z,3.03
2019-05-10T20:52:03.323Z,3.07
2019-05-10T20:54:29.538Z,2.77
2019-05-10T20:56:55.731Z,3.00
2019-05-10T20:59:21.963Z,2.97
2019-05-10T21:01:48.124Z,2.97
2019-05-10T21:04:14.312Z,2.93
2019-05-10T21:06:40.973Z,2.80
2019-05-10T21:09:07.155Z,2.60
2019-05-10T21:11:33.359Z,2.30
2019-05-10T21:13:59.531Z,2.30
2019-05-10T21:16:25.708Z,2.77
2019-05-10T21:18:51.888Z,3.43
2019-05-10T21:21:18.042Z,2.53
2019-05-10T21:23:44.281Z,2.30
2019-05-10T21:26:10.535Z,2.37
2019-05-10T21:28:36.683Z,2.40
2019-05-10T21:31:02.861Z,2.43
2019-05-10T21:33:29.068Z,1.83
2019-05-10T21:35:55.224Z,2.00
2019-05-10T21:38:32.618Z,1.90
2019-05-10T21:40:49.497Z,2.10
2019-05-10T21:43:15.718Z,2.10
2019-05-10T21:45:41.888Z,2.03
2019-05-10T21:48:08.133Z,2.00
2019-05-10T21:50:34.314Z,2.13
2019-05-10T21:53:00.471Z,1.90
2019-05-10T21:55:26.725Z,2.03
2019-05-10T21:57:52.899Z,2.07
2019-05-10T22:00:22.836Z,2.10
2019-05-10T22:02:49.047Z,2.40
2019-05-10T22:05:15.228Z,2.70
2019-05-10T22:07:41.408Z,2.63
2019-05-10T22:10:07.715Z,2.40
2019-05-10T22:12:33.893Z,2.50
2019-05-10T22:15:00.072Z,2.47
2019-05-10T22:17:26.294Z,2.63
2019-05-10T22:19:52.463Z,2.33
2019-05-10T22:22:18.630Z,2.50
2019-05-10T22:24:44.845Z,2.60
2019-05-10T22:27:11.016Z,2.90
2019-05-10T22:29:37.544Z,2.63
2019-05-10T22:32:03.853Z,2.70
2019-05-10T22:34:30.026Z,2.80
2019-05-10T22:36:56.215Z,2.70
2019-05-10T22:39:22.808Z,2.63
2019-05-10T22:41:48.978Z,2.33
2019-05-10T22:44:15.161Z,3.00
2019-05-10T22:46:41.483Z,2.70
2019-05-10T22:49:07.656Z,2.50
2019-05-10T22:51:33.832Z,2.57
2019-05-10T22:54:00.456Z,2.50
2019-05-10T22:56:26.918Z,2.53
2019-05-10T22:58:53.091Z,2.73
2019-05-10T23:01:19.365Z,2.77
2019-05-10T23:03:45.542Z,2.27
2019-05-10T23:06:11.723Z,2.13
2019-05-10T23:08:38.048Z,2.33
2019-05-10T23:11:04.222Z,1.90
2019-05-10T23:13:30.400Z,2.20
2019-05-10T23:15:56.611Z,2.50
2019-05-10T23:18:22.829Z,2.30
2019-05-10T23:20:49.052Z,2.13
2019-05-10T23:23:15.256Z,2.50
2019-05-10T23:25:41.404Z,2.17
2019-05-10T23:28:07.588Z,2.37
2019-05-10T23:30:33.785Z,2.23
2019-05-10T23:33:00.071Z,2.10
2019-05-10T23:35:26.356Z,2.00
2019-05-10T23:37:52.679Z,1.80
2019-05-10T23:40:18.978Z,2.10
2019-05-10T23:42:45.549Z,1.63
2019-05-10T23:45:11.921Z,1.73
2019-05-10T23:47:38.221Z,1.70
2019-05-10T23:50:05.307Z,2.00
2019-05-10T23:52:31.650Z,1.80
2019-05-10T23:54:57.938Z,1.90
2019-05-10T23:57:24.236Z,1.57
2019-05-10T23:59:50.571Z,1.63
